Buoy 44845

sailwx.info

Track history (hours):
 
Tides and Currents Weather Stations Pressure Air Temp Water Temp Dewpoint Dewpoint Depression Visibility Wind Speed Wind Dir Waves Ship Positions

Drifting buoy 44845

Last reported at 2017-Feb-24 01:01 UTC. Time now 2017-Feb-24 02:07 UTC.
Position N 70°24' E 051°28'.

Date/timePositionNaut miles runAvg speedWind from/ knotsBaromVisibWave heightAir tempDewpointWater temp
2017-Feb-24 01:01N 70°24' E 051°28'1 0.6
2017-Feb-24 00:01N 70°23' E 051°29'1 1.2
2017-Feb-23 23:01N 70°22' E 051°29'1 0.6
2017-Feb-23 21:01N 70°21' E 051°29'1 0.6
2017-Feb-23 20:01N 70°20' E 051°28'0 0.2
2017-Feb-23 19:01N 70°20' E 051°28'1 0.6
2017-Feb-23 18:01N 70°20' E 051°27'1 0.6
2017-Feb-23 17:01N 70°19' E 051°26'0 0.2
2017-Feb-23 16:01N 70°19' E 051°26'1 0.6
2017-Feb-23 14:01N 70°18' E 051°25'0 0.0
2017-Feb-23 13:01N 70°18' E 051°25'1 0.6
2017-Feb-23 12:01N 70°17' E 051°25'1 0.6
2017-Feb-23 11:01N 70°17' E 051°26'0 0.2
2017-Feb-23 10:01N 70°17' E 051°25'0 0.0
2017-Feb-23 09:01N 70°17' E 051°25'1 0.6
2017-Feb-23 08:01N 70°16' E 051°25'0 0.0
2017-Feb-23 07:01N 70°16' E 051°25'1 0.6
2017-Feb-23 06:01N 70°16' E 051°24'0 0.2
2017-Feb-23 05:01N 70°16' E 051°23'0 0.2
2017-Feb-23 04:01N 70°16' E 051°23'1 0.6
2017-Feb-23 03:01N 70°15' E 051°22'0 0.2
2017-Feb-23 02:01N 70°15' E 051°22'0 0.2
2017-Feb-23 01:01N 70°15' E 051°21'1 0.6
2017-Feb-23 00:01N 70°14' E 051°20'0 0.2
2017-Feb-22 23:01N 70°14' E 051°20'0 0.0
2017-Feb-22 22:01N 70°14' E 051°20'0 0.2
2017-Feb-22 21:01N 70°14' E 051°19'1 0.6
2017-Feb-22 20:01N 70°14' E 051°19'0 0.2
2017-Feb-22 19:01N 70°14' E 051°18'0 0.4
2017-Feb-22 18:01N 70°14' E 051°17'0 0.4
2017-Feb-22 17:01N 70°14' E 051°16'0 0.2
2017-Feb-22 16:01N 70°14' E 051°15'0 0.4
2017-Feb-22 15:01N 70°14' E 051°14'0 0.2
2017-Feb-22 14:01N 70°14' E 051°13'1 1.3
2017-Feb-22 13:01N 70°13' E 051°12'1 1.2
2017-Feb-22 12:01N 70°14' E 051°11'0 0.2
2017-Feb-22 11:01N 70°14' E 051°11'0 0.0
2017-Feb-22 10:01N 70°14' E 051°11'0 0.4
2017-Feb-22 09:01N 70°14' E 051°10'0 0.4
2017-Feb-22 08:01N 70°14' E 051°08'0 0.4
2017-Feb-22 07:01N 70°14' E 051°07'1 0.7
2017-Feb-22 06:01N 70°14' E 051°06'1 0.6
2017-Feb-22 05:01N 70°14' E 051°04'0 0.4
2017-Feb-22 04:01N 70°14' E 051°03'1 1.0
2017-Feb-22 03:01N 70°15' E 051°01'1 0.6
2017-Feb-22 02:01N 70°15' E 050°59'1 0.8
2017-Feb-22 01:01N 70°15' E 050°56'1 0.8
2017-Feb-22 00:01N 70°15' E 050°54'1 0.8
2017-Feb-21 23:01N 70°15' E 050°52'1 0.6
2017-Feb-21 22:01N 70°15' E 050°50'1 0.8
2017-Feb-21 21:01N 70°15' E 050°47'1 0.8
2017-Feb-21 20:01N 70°15' E 050°45'1 0.8
2017-Feb-21 19:01N 70°15' E 050°43'1 0.8
2017-Feb-21 18:01N 70°15' E 050°40'1 0.6
2017-Feb-21 17:01N 70°15' E 050°38'1 0.8
2017-Feb-21 16:01N 70°15' E 050°36'1 0.8
2017-Feb-21 15:01N 70°15' E 050°34'1 0.7
2017-Feb-21 13:01N 70°16' E 050°30'0 0.4
2017-Feb-21 12:01N 70°16' E 050°29'0 0.2
2017-Feb-21 11:01N 70°16' E 050°28'0 0.2
2017-Feb-21 10:01N 70°16' E 050°28'1 0.6
2017-Feb-21 09:01N 70°15' E 050°28'0 0.0
2017-Feb-21 08:01N 70°15' E 050°28'0 0.0
2017-Feb-21 07:01N 70°15' E 050°28'0 0.2
2017-Feb-21 06:01N 70°15' E 050°28'1 0.6
2017-Feb-21 05:01N 70°16' E 050°28'0 0.2
2017-Feb-21 04:01N 70°16' E 050°29'0 0.0
2017-Feb-21 03:01N 70°16' E 050°29'0 0.2
2017-Feb-21 02:01N 70°16' E 050°29'1 0.6
2017-Feb-21 01:01N 70°16' E 050°30'0 0.2
2017-Feb-21 00:01N 70°16' E 050°31'0 0.2
2017-Feb-20 23:01N 70°16' E 050°31'0 0.4
2017-Feb-20 22:01N 70°16' E 050°32'1010.0
2017-Feb-20 21:01N 70°08' E 050°16'1110.5
2017-Feb-20 20:01N 70°16' E 050°35'0 0.4
2017-Feb-20 19:01N 70°16' E 050°36'1 0.7
2017-Feb-20 18:01N 70°17' E 050°37'0 0.2
2017-Feb-20 17:01N 70°17' E 050°38'0 0.4
2017-Feb-20 16:01N 70°17' E 050°39'0 0.2
2017-Feb-20 15:01N 70°17' E 050°40'0 0.4
2017-Feb-20 14:01N 70°17' E 050°41'1 0.6
2017-Feb-20 13:01N 70°17' E 050°41'0 0.4
2017-Feb-20 12:01N 70°17' E 050°43'0 0.2
2017-Feb-20 11:01N 70°17' E 050°43'1 0.6
2017-Feb-20 10:01N 70°17' E 050°45'0 0.4
2017-Feb-20 09:01N 70°17' E 050°46'1 0.6
2017-Feb-20 08:01N 70°17' E 050°48'1 0.6
2017-Feb-20 07:01N 70°17' E 050°50'1 0.7
2017-Feb-20 05:01N 70°17' E 050°54'1 0.9
2017-Feb-20 04:01N 70°18' E 050°56'0 0.4
2017-Feb-20 03:01N 70°18' E 050°57'0 0.4
2017-Feb-20 02:01N 70°18' E 050°58'1 0.6
2017-Feb-20 01:01N 70°18' E 051°00'0 0.4
2017-Feb-20 00:01N 70°18' E 051°01'0 0.4
2017-Feb-19 23:01N 70°18' E 051°02'1 0.6
2017-Feb-19 22:01N 70°18' E 051°04'1 0.6
2017-Feb-19 21:01N 70°18' E 051°06'1 0.6
2017-Feb-19 20:01N 70°18' E 051°08'1 0.6
2017-Feb-19 19:01N 70°18' E 051°10'1 0.9
2017-Feb-19 18:01N 70°19' E 051°11'0 0.4
2017-Feb-19 17:01N 70°19' E 051°13'0 0.4
2017-Feb-19 16:01N 70°19' E 051°14'1 0.7
2017-Feb-19 15:01N 70°19' E 051°15'0 0.2
2017-Feb-19 14:01N 70°19' E 051°16'0 0.2
2017-Feb-19 13:01N 70°19' E 051°16'1 0.6
2017-Feb-19 12:01N 70°20' E 051°17'1 0.7
2017-Feb-19 11:01N 70°20' E 051°18'0 0.2
2017-Feb-19 10:01N 70°20' E 051°19'0 0.2
2017-Feb-19 09:01N 70°20' E 051°19'0 0.4
2017-Feb-19 08:01N 70°20' E 051°20'0 0.2
2017-Feb-19 07:01N 70°20' E 051°21'1 0.7
2017-Feb-19 06:01N 70°21' E 051°22'0 0.4
2017-Feb-19 05:01N 70°21' E 051°23'0 0.2
2017-Feb-19 04:01N 70°21' E 051°24'0 0.4
2017-Feb-19 03:01N 70°21' E 051°25'0 0.2
2017-Feb-19 02:01N 70°21' E 051°26'0 0.2
2017-Feb-19 01:01N 70°21' E 051°26'1 0.6
2017-Feb-19 00:01N 70°22' E 051°27'0 0.4
2017-Feb-18 23:01N 70°22' E 051°28'0 0.2
2017-Feb-18 22:01N 70°22' E 051°29'1 0.6
2017-Feb-18 21:01N 70°22' E 051°31'1 0.6
2017-Feb-18 20:01N 70°22' E 051°32'1 0.6
2017-Feb-18 19:01N 70°22' E 051°34'1 0.6
2017-Feb-18 18:01N 70°22' E 051°36'0 0.4
2017-Feb-18 17:01N 70°22' E 051°37'1 0.6
2017-Feb-18 16:01N 70°22' E 051°39'0 0.2
2017-Feb-18 15:01N 70°22' E 051°40'0 0.4
2017-Feb-18 14:01N 70°22' E 051°41'0 0.4
2017-Feb-18 13:01N 70°22' E 051°42'0 0.2
2017-Feb-18 12:01N 70°22' E 051°43'0 0.4
2017-Feb-18 11:01N 70°22' E 051°44'0 0.4
2017-Feb-18 10:01N 70°22' E 051°45'1 0.6
2017-Feb-18 08:01N 70°22' E 051°49'1 0.9
2017-Feb-18 07:01N 70°21' E 051°50'1 0.6
2017-Feb-18 05:01N 70°21' E 051°54'1 0.6
2017-Feb-18 04:01N 70°21' E 051°56'0 0.4
2017-Feb-18 03:01N 70°21' E 051°57'0 0.4
2017-Feb-18 02:01N 70°21' E 051°58'0 0.2
2017-Feb-18 01:01N 70°21' E 051°59'1 0.7
2017-Feb-18 00:01N 70°22' E 052°00'0 0.4
2017-Feb-17 23:01N 70°22' E 052°01'1 0.6
2017-Feb-17 22:01N 70°22' E 052°01'0 0.2
2017-Feb-17 21:01N 70°22' E 052°02'1 0.6
2017-Feb-17 20:01N 70°23' E 052°02'1 0.6
2017-Feb-17 19:01N 70°23' E 052°03'0 0.2
2017-Feb-17 18:01N 70°23' E 052°04'1 0.6
2017-Feb-17 17:01N 70°24' E 052°04'1 0.6
2017-Feb-17 16:01N 70°25' E 052°04'1 0.6
2017-Feb-17 15:01N 70°25' E 052°05'1 1.2
2017-Feb-17 14:01N 70°26' E 052°05'1 0.6
2017-Feb-17 13:01N 70°27' E 052°05'1 1.3
2017-Feb-17 12:01N 70°28' E 052°04'1 1.2
2017-Feb-17 11:01N 70°29' E 052°03'1 1.3
2017-Feb-17 10:01N 70°31' E 052°02'1 1.4
2017-Feb-17 09:01N 70°32' E 051°59'1 0.8
2017-Feb-17 08:01N 70°32' E 051°58'1 0.7
2017-Feb-17 07:01N 70°33' E 051°56'1 1.3
2017-Feb-17 06:01N 70°34' E 051°55'1 0.8
2017-Feb-17 05:01N 70°35' E 051°53'1 0.7
2017-Feb-17 04:01N 70°35' E 051°52'1 1.3
2017-Feb-17 03:01N 70°37' E 051°50'1 1.4
2017-Feb-17 02:01N 70°38' E 051°48'1 1.3
2017-Feb-17 01:01N 70°39' E 051°46'1 1.0
2017-Feb-17 00:01N 70°40' E 051°44'1 1.4
2017-Feb-16 23:01N 70°41' E 051°41'1 1.4
2017-Feb-16 22:01N 70°42' E 051°39'1 1.3
2017-Feb-16 21:01N 70°43' E 051°37'1 0.8
2017-Feb-16 20:01N 70°44' E 051°35'1 1.3
2017-Feb-16 19:01N 70°45' E 051°34'1 0.8
2017-Feb-16 18:01N 70°46' E 051°32'1 1.3
2017-Feb-16 17:01N 70°47' E 051°30'1 0.8
2017-Feb-16 16:01N 70°47' E 051°28'1 0.8
2017-Feb-16 15:01N 70°48' E 051°26'1 1.3
2017-Feb-16 14:01N 70°49' E 051°25'1 1.3
2017-Feb-16 13:01N 70°50' E 051°23'1 0.7
2017-Feb-16 12:01N 70°51' E 051°22'1 1.3
2017-Feb-16 11:01N 70°52' E 051°20'1 1.2
2017-Feb-16 10:01N 70°53' E 051°20'1 0.6
2017-Feb-16 09:01N 70°54' E 051°19'1 0.6
2017-Feb-16 08:01N 70°55' E 051°19'1 1.2
2017-Feb-16 07:01N 70°56' E 051°19'0 0.2
2017-Feb-16 06:01N 70°56' E 051°18'0 0.4
2017-Feb-16 05:01N 70°56' E 051°17'1 0.7
2017-Feb-16 04:01N 70°55' E 051°16'1 0.8
2017-Feb-16 03:01N 70°55' E 051°14'1 0.8
2017-Feb-16 02:01N 70°54' E 051°12'1 1.0
2017-Feb-16 01:01N 70°53' E 051°10'1 1.0
2017-Feb-16 00:01N 70°53' E 051°07'1 0.8
2017-Feb-15 23:01N 70°53' E 051°05'1 0.6
2017-Feb-15 22:01N 70°53' E 051°03'1 0.8
2017-Feb-15 21:01N 70°53' E 051°01'1 0.6
2017-Feb-15 20:01N 70°53' E 050°59'0 0.4
2017-Feb-15 19:01N 70°53' E 050°58'0 0.2
2017-Feb-15 18:01N 70°53' E 050°57'0 0.4
2017-Feb-15 17:01N 70°53' E 050°56'1 0.6
2017-Feb-15 16:01N 70°53' E 050°55'1 0.7
2017-Feb-15 15:01N 70°54' E 050°54'1 0.7
2017-Feb-15 14:01N 70°55' E 050°53'1 0.6
2017-Feb-15 13:01N 70°55' E 050°52'1 1.2
2017-Feb-15 12:01N 70°56' E 050°52'1 1.2
2017-Feb-15 11:01N 70°58' E 050°51'1 1.2
2017-Feb-15 10:01N 70°59' E 050°50'1 0.6
2017-Feb-15 09:01N 70°59' E 050°50'1 1.2
2017-Feb-15 08:01N 71°01' E 050°50'1 1.2
2017-Feb-15 07:01N 71°02' E 050°50'1 1.2
2017-Feb-15 06:01N 71°03' E 050°51'1 0.6
2017-Feb-15 05:01N 71°04' E 050°52'1 1.2
2017-Feb-15 04:01N 71°05' E 050°52'1 1.2
2017-Feb-15 03:01N 71°06' E 050°52'1 1.2
2017-Feb-15 02:01N 71°07' E 050°52'1 1.2
2017-Feb-15 01:01N 71°08' E 050°52'2 1.8
2017-Feb-15 00:01N 71°10' E 050°51'1 1.3
2017-Feb-14 23:01N 71°11' E 050°50'1 1.2
2017-Feb-14 22:01N 71°13' E 050°49'1 1.2
2017-Feb-14 21:01N 71°14' E 050°49'1 1.2
2017-Feb-14 20:01N 71°15' E 050°49'1 1.2
2017-Feb-14 19:01N 71°16' E 050°49'1 1.2
2017-Feb-14 18:01N 71°17' E 050°49'1 0.6
2017-Feb-14 17:01N 71°18' E 050°50'1 1.2
2017-Feb-14 16:01N 71°19' E 050°50'1 0.6
2017-Feb-14 15:01N 71°20' E 050°50'1 1.2
2017-Feb-14 14:01N 71°21' E 050°50'1 0.6
2017-Feb-14 13:01N 71°22' E 050°49'1 1.2
2017-Feb-14 12:01N 71°23' E 050°49'1 1.2
2017-Feb-14 11:01N 71°24' E 050°49'1 1.2
2017-Feb-14 10:01N 71°25' E 050°48'1 1.2
2017-Feb-14 09:01N 71°26' E 050°47'1 1.3
2017-Feb-14 08:01N 71°28' E 050°46'1 1.2
2017-Feb-14 07:01N 71°29' E 050°46'1 0.6
2017-Feb-14 06:01N 71°29' E 050°46'1 0.6
2017-Feb-14 05:01N 71°30' E 050°46'1 0.6
2017-Feb-14 04:01N 71°31' E 050°46'0 0.2
2017-Feb-14 03:01N 71°31' E 050°47'1 0.6
2017-Feb-14 02:01N 71°31' E 050°47'0 0.2
2017-Feb-14 01:01N 71°31' E 050°48'  
Track history (hours):
 
Tides and Currents Weather Stations Pressure Air Temp Water Temp Dewpoint Dewpoint Depression Visibility Wind Speed Wind Dir Waves Ship Positions

Drifting buoy 44845

Last reported at 2017-Feb-24 01:01 UTC. Time now 2017-Feb-24 02:07 UTC.
Position N 70°24' E 051°28'.

Date/timePositionNaut miles runAvg speedWind from/ knotsBaromVisibWave heightAir tempDewpointWater temp
2017-Feb-24 01:01N 70°24' E 051°28'1 0.6
2017-Feb-24 00:01N 70°23' E 051°29'1 1.2
2017-Feb-23 23:01N 70°22' E 051°29'1 0.6
2017-Feb-23 21:01N 70°21' E 051°29'1 0.6
2017-Feb-23 20:01N 70°20' E 051°28'0 0.2
2017-Feb-23 19:01N 70°20' E 051°28'1 0.6
2017-Feb-23 18:01N 70°20' E 051°27'1 0.6
2017-Feb-23 17:01N 70°19' E 051°26'0 0.2
2017-Feb-23 16:01N 70°19' E 051°26'1 0.6
2017-Feb-23 14:01N 70°18' E 051°25'0 0.0
2017-Feb-23 13:01N 70°18' E 051°25'1 0.6
2017-Feb-23 12:01N 70°17' E 051°25'1 0.6
2017-Feb-23 11:01N 70°17' E 051°26'0 0.2
2017-Feb-23 10:01N 70°17' E 051°25'0 0.0
2017-Feb-23 09:01N 70°17' E 051°25'1 0.6
2017-Feb-23 08:01N 70°16' E 051°25'0 0.0
2017-Feb-23 07:01N 70°16' E 051°25'1 0.6
2017-Feb-23 06:01N 70°16' E 051°24'0 0.2
2017-Feb-23 05:01N 70°16' E 051°23'0 0.2
2017-Feb-23 04:01N 70°16' E 051°23'1 0.6
2017-Feb-23 03:01N 70°15' E 051°22'0 0.2
2017-Feb-23 02:01N 70°15' E 051°22'0 0.2
2017-Feb-23 01:01N 70°15' E 051°21'1 0.6
2017-Feb-23 00:01N 70°14' E 051°20'0 0.2
2017-Feb-22 23:01N 70°14' E 051°20'0 0.0
2017-Feb-22 22:01N 70°14' E 051°20'0 0.2
2017-Feb-22 21:01N 70°14' E 051°19'1 0.6
2017-Feb-22 20:01N 70°14' E 051°19'0 0.2
2017-Feb-22 19:01N 70°14' E 051°18'0 0.4
2017-Feb-22 18:01N 70°14' E 051°17'0 0.4
2017-Feb-22 17:01N 70°14' E 051°16'0 0.2
2017-Feb-22 16:01N 70°14' E 051°15'0 0.4
2017-Feb-22 15:01N 70°14' E 051°14'0 0.2
2017-Feb-22 14:01N 70°14' E 051°13'1 1.3
2017-Feb-22 13:01N 70°13' E 051°12'1 1.2
2017-Feb-22 12:01N 70°14' E 051°11'0 0.2
2017-Feb-22 11:01N 70°14' E 051°11'0 0.0
2017-Feb-22 10:01N 70°14' E 051°11'0 0.4
2017-Feb-22 09:01N 70°14' E 051°10'0 0.4
2017-Feb-22 08:01N 70°14' E 051°08'0 0.4
2017-Feb-22 07:01N 70°14' E 051°07'1 0.7
2017-Feb-22 06:01N 70°14' E 051°06'1 0.6
2017-Feb-22 05:01N 70°14' E 051°04'0 0.4
2017-Feb-22 04:01N 70°14' E 051°03'1 1.0
2017-Feb-22 03:01N 70°15' E 051°01'1 0.6
2017-Feb-22 02:01N 70°15' E 050°59'1 0.8
2017-Feb-22 01:01N 70°15' E 050°56'1 0.8
2017-Feb-22 00:01N 70°15' E 050°54'1 0.8
2017-Feb-21 23:01N 70°15' E 050°52'1 0.6
2017-Feb-21 22:01N 70°15' E 050°50'1 0.8
2017-Feb-21 21:01N 70°15' E 050°47'1 0.8
2017-Feb-21 20:01N 70°15' E 050°45'1 0.8
2017-Feb-21 19:01N 70°15' E 050°43'1 0.8
2017-Feb-21 18:01N 70°15' E 050°40'1 0.6
2017-Feb-21 17:01N 70°15' E 050°38'1 0.8
2017-Feb-21 16:01N 70°15' E 050°36'1 0.8
2017-Feb-21 15:01N 70°15' E 050°34'1 0.7
2017-Feb-21 13:01N 70°16' E 050°30'0 0.4
2017-Feb-21 12:01N 70°16' E 050°29'0 0.2
2017-Feb-21 11:01N 70°16' E 050°28'0 0.2
2017-Feb-21 10:01N 70°16' E 050°28'1 0.6
2017-Feb-21 09:01N 70°15' E 050°28'0 0.0
2017-Feb-21 08:01N 70°15' E 050°28'0 0.0
2017-Feb-21 07:01N 70°15' E 050°28'0 0.2
2017-Feb-21 06:01N 70°15' E 050°28'1 0.6
2017-Feb-21 05:01N 70°16' E 050°28'0 0.2
2017-Feb-21 04:01N 70°16' E 050°29'0 0.0
2017-Feb-21 03:01N 70°16' E 050°29'0 0.2
2017-Feb-21 02:01N 70°16' E 050°29'1 0.6
2017-Feb-21 01:01N 70°16' E 050°30'0 0.2
2017-Feb-21 00:01N 70°16' E 050°31'0 0.2
2017-Feb-20 23:01N 70°16' E 050°31'0 0.4
2017-Feb-20 22:01N 70°16' E 050°32'1010.0
2017-Feb-20 21:01N 70°08' E 050°16'1110.5
2017-Feb-20 20:01N 70°16' E 050°35'0 0.4
2017-Feb-20 19:01N 70°16' E 050°36'1 0.7
2017-Feb-20 18:01N 70°17' E 050°37'0 0.2
2017-Feb-20 17:01N 70°17' E 050°38'0 0.4
2017-Feb-20 16:01N 70°17' E 050°39'0 0.2
2017-Feb-20 15:01N 70°17' E 050°40'0 0.4
2017-Feb-20 14:01N 70°17' E 050°41'1 0.6
2017-Feb-20 13:01N 70°17' E 050°41'0 0.4
2017-Feb-20 12:01N 70°17' E 050°43'0 0.2
2017-Feb-20 11:01N 70°17' E 050°43'1 0.6
2017-Feb-20 10:01N 70°17' E 050°45'0 0.4
2017-Feb-20 09:01N 70°17' E 050°46'1 0.6
2017-Feb-20 08:01N 70°17' E 050°48'1 0.6
2017-Feb-20 07:01N 70°17' E 050°50'1 0.7
2017-Feb-20 05:01N 70°17' E 050°54'1 0.9
2017-Feb-20 04:01N 70°18' E 050°56'0 0.4
2017-Feb-20 03:01N 70°18' E 050°57'0 0.4
2017-Feb-20 02:01N 70°18' E 050°58'1 0.6
2017-Feb-20 01:01N 70°18' E 051°00'0 0.4
2017-Feb-20 00:01N 70°18' E 051°01'0 0.4
2017-Feb-19 23:01N 70°18' E 051°02'1 0.6
2017-Feb-19 22:01N 70°18' E 051°04'1 0.6
2017-Feb-19 21:01N 70°18' E 051°06'1 0.6
2017-Feb-19 20:01N 70°18' E 051°08'1 0.6
2017-Feb-19 19:01N 70°18' E 051°10'1 0.9
2017-Feb-19 18:01N 70°19' E 051°11'0 0.4
2017-Feb-19 17:01N 70°19' E 051°13'0 0.4
2017-Feb-19 16:01N 70°19' E 051°14'1 0.7
2017-Feb-19 15:01N 70°19' E 051°15'0 0.2
2017-Feb-19 14:01N 70°19' E 051°16'0 0.2
2017-Feb-19 13:01N 70°19' E 051°16'1 0.6
2017-Feb-19 12:01N 70°20' E 051°17'1 0.7
2017-Feb-19 11:01N 70°20' E 051°18'0 0.2
2017-Feb-19 10:01N 70°20' E 051°19'0 0.2
2017-Feb-19 09:01N 70°20' E 051°19'0 0.4
2017-Feb-19 08:01N 70°20' E 051°20'0 0.2
2017-Feb-19 07:01N 70°20' E 051°21'1 0.7
2017-Feb-19 06:01N 70°21' E 051°22'0 0.4
2017-Feb-19 05:01N 70°21' E 051°23'0 0.2
2017-Feb-19 04:01N 70°21' E 051°24'0 0.4
2017-Feb-19 03:01N 70°21' E 051°25'0 0.2
2017-Feb-19 02:01N 70°21' E 051°26'0 0.2
2017-Feb-19 01:01N 70°21' E 051°26'1 0.6
2017-Feb-19 00:01N 70°22' E 051°27'0 0.4
2017-Feb-18 23:01N 70°22' E 051°28'0 0.2
2017-Feb-18 22:01N 70°22' E 051°29'1 0.6
2017-Feb-18 21:01N 70°22' E 051°31'1 0.6
2017-Feb-18 20:01N 70°22' E 051°32'1 0.6
2017-Feb-18 19:01N 70°22' E 051°34'1 0.6
2017-Feb-18 18:01N 70°22' E 051°36'0 0.4
2017-Feb-18 17:01N 70°22' E 051°37'1 0.6
2017-Feb-18 16:01N 70°22' E 051°39'0 0.2
2017-Feb-18 15:01N 70°22' E 051°40'0 0.4
2017-Feb-18 14:01N 70°22' E 051°41'0 0.4
2017-Feb-18 13:01N 70°22' E 051°42'0 0.2
2017-Feb-18 12:01N 70°22' E 051°43'0 0.4
2017-Feb-18 11:01N 70°22' E 051°44'0 0.4
2017-Feb-18 10:01N 70°22' E 051°45'1 0.6
2017-Feb-18 08:01N 70°22' E 051°49'1 0.9
2017-Feb-18 07:01N 70°21' E 051°50'1 0.6
2017-Feb-18 05:01N 70°21' E 051°54'1 0.6
2017-Feb-18 04:01N 70°21' E 051°56'0 0.4
2017-Feb-18 03:01N 70°21' E 051°57'0 0.4
2017-Feb-18 02:01N 70°21' E 051°58'0 0.2
2017-Feb-18 01:01N 70°21' E 051°59'1 0.7
2017-Feb-18 00:01N 70°22' E 052°00'0 0.4
2017-Feb-17 23:01N 70°22' E 052°01'1 0.6
2017-Feb-17 22:01N 70°22' E 052°01'0 0.2
2017-Feb-17 21:01N 70°22' E 052°02'1 0.6
2017-Feb-17 20:01N 70°23' E 052°02'1 0.6
2017-Feb-17 19:01N 70°23' E 052°03'0 0.2
2017-Feb-17 18:01N 70°23' E 052°04'1 0.6
2017-Feb-17 17:01N 70°24' E 052°04'1 0.6
2017-Feb-17 16:01N 70°25' E 052°04'1 0.6
2017-Feb-17 15:01N 70°25' E 052°05'1 1.2
2017-Feb-17 14:01N 70°26' E 052°05'1 0.6
2017-Feb-17 13:01N 70°27' E 052°05'1 1.3
2017-Feb-17 12:01N 70°28' E 052°04'1 1.2
2017-Feb-17 11:01N 70°29' E 052°03'1 1.3
2017-Feb-17 10:01N 70°31' E 052°02'1 1.4
2017-Feb-17 09:01N 70°32' E 051°59'1 0.8
2017-Feb-17 08:01N 70°32' E 051°58'1 0.7
2017-Feb-17 07:01N 70°33' E 051°56'1 1.3
2017-Feb-17 06:01N 70°34' E 051°55'1 0.8
2017-Feb-17 05:01N 70°35' E 051°53'1 0.7
2017-Feb-17 04:01N 70°35' E 051°52'1 1.3
2017-Feb-17 03:01N 70°37' E 051°50'1 1.4
2017-Feb-17 02:01N 70°38' E 051°48'1 1.3
2017-Feb-17 01:01N 70°39' E 051°46'1 1.0
2017-Feb-17 00:01N 70°40' E 051°44'1 1.4
2017-Feb-16 23:01N 70°41' E 051°41'1 1.4
2017-Feb-16 22:01N 70°42' E 051°39'1 1.3
2017-Feb-16 21:01N 70°43' E 051°37'1 0.8
2017-Feb-16 20:01N 70°44' E 051°35'1 1.3
2017-Feb-16 19:01N 70°45' E 051°34'1 0.8
2017-Feb-16 18:01N 70°46' E 051°32'1 1.3
2017-Feb-16 17:01N 70°47' E 051°30'1 0.8
2017-Feb-16 16:01N 70°47' E 051°28'1 0.8
2017-Feb-16 15:01N 70°48' E 051°26'1 1.3
2017-Feb-16 14:01N 70°49' E 051°25'1 1.3
2017-Feb-16 13:01N 70°50' E 051°23'1 0.7
2017-Feb-16 12:01N 70°51' E 051°22'1 1.3
2017-Feb-16 11:01N 70°52' E 051°20'1 1.2
2017-Feb-16 10:01N 70°53' E 051°20'1 0.6
2017-Feb-16 09:01N 70°54' E 051°19'1 0.6
2017-Feb-16 08:01N 70°55' E 051°19'1 1.2
2017-Feb-16 07:01N 70°56' E 051°19'0 0.2
2017-Feb-16 06:01N 70°56' E 051°18'0 0.4
2017-Feb-16 05:01N 70°56' E 051°17'1 0.7
2017-Feb-16 04:01N 70°55' E 051°16'1 0.8
2017-Feb-16 03:01N 70°55' E 051°14'1 0.8
2017-Feb-16 02:01N 70°54' E 051°12'1 1.0
2017-Feb-16 01:01N 70°53' E 051°10'1 1.0
2017-Feb-16 00:01N 70°53' E 051°07'1 0.8
2017-Feb-15 23:01N 70°53' E 051°05'1 0.6
2017-Feb-15 22:01N 70°53' E 051°03'1 0.8
2017-Feb-15 21:01N 70°53' E 051°01'1 0.6
2017-Feb-15 20:01N 70°53' E 050°59'0 0.4
2017-Feb-15 19:01N 70°53' E 050°58'0 0.2
2017-Feb-15 18:01N 70°53' E 050°57'0 0.4
2017-Feb-15 17:01N 70°53' E 050°56'1 0.6
2017-Feb-15 16:01N 70°53' E 050°55'1 0.7
2017-Feb-15 15:01N 70°54' E 050°54'1 0.7
2017-Feb-15 14:01N 70°55' E 050°53'1 0.6
2017-Feb-15 13:01N 70°55' E 050°52'1 1.2
2017-Feb-15 12:01N 70°56' E 050°52'1 1.2
2017-Feb-15 11:01N 70°58' E 050°51'1 1.2
2017-Feb-15 10:01N 70°59' E 050°50'1 0.6
2017-Feb-15 09:01N 70°59' E 050°50'1 1.2
2017-Feb-15 08:01N 71°01' E 050°50'1 1.2
2017-Feb-15 07:01N 71°02' E 050°50'1 1.2
2017-Feb-15 06:01N 71°03' E 050°51'1 0.6
2017-Feb-15 05:01N 71°04' E 050°52'1 1.2
2017-Feb-15 04:01N 71°05' E 050°52'1 1.2
2017-Feb-15 03:01N 71°06' E 050°52'1 1.2
2017-Feb-15 02:01N 71°07' E 050°52'1 1.2
2017-Feb-15 01:01N 71°08' E 050°52'2 1.8
2017-Feb-15 00:01N 71°10' E 050°51'1 1.3
2017-Feb-14 23:01N 71°11' E 050°50'1 1.2
2017-Feb-14 22:01N 71°13' E 050°49'1 1.2
2017-Feb-14 21:01N 71°14' E 050°49'1 1.2
2017-Feb-14 20:01N 71°15' E 050°49'1 1.2
2017-Feb-14 19:01N 71°16' E 050°49'1 1.2
2017-Feb-14 18:01N 71°17' E 050°49'1 0.6
2017-Feb-14 17:01N 71°18' E 050°50'1 1.2
2017-Feb-14 16:01N 71°19' E 050°50'1 0.6
2017-Feb-14 15:01N 71°20' E 050°50'1 1.2
2017-Feb-14 14:01N 71°21' E 050°50'1 0.6
2017-Feb-14 13:01N 71°22' E 050°49'1 1.2
2017-Feb-14 12:01N 71°23' E 050°49'1 1.2
2017-Feb-14 11:01N 71°24' E 050°49'1 1.2
2017-Feb-14 10:01N 71°25' E 050°48'1 1.2
2017-Feb-14 09:01N 71°26' E 050°47'1 1.3
2017-Feb-14 08:01N 71°28' E 050°46'1 1.2
2017-Feb-14 07:01N 71°29' E 050°46'1 0.6
2017-Feb-14 06:01N 71°29' E 050°46'1 0.6
2017-Feb-14 05:01N 71°30' E 050°46'1 0.6
2017-Feb-14 04:01N 71°31' E 050°46'0 0.2
2017-Feb-14 03:01N 71°31' E 050°47'1 0.6
2017-Feb-14 02:01N 71°31' E 050°47'0 0.2
2017-Feb-14 01:01N 71°31' E 050°48'  

Dump ship's entire track history